createdAt,value
2024-05-09T00:00:48.487Z,95548.76
2024-05-09T00:03:37.224Z,95548.16
2024-05-09T00:06:08.164Z,95544.27
2024-05-09T00:08:36.686Z,95538.52
2024-05-09T00:11:05.651Z,95544.59
2024-05-09T00:13:34.363Z,95541.67
2024-05-09T00:16:02.837Z,95545.59
2024-05-09T00:18:33.270Z,95540.27
2024-05-09T00:21:05.876Z,95541.09
2024-05-09T00:23:34.336Z,95545.39
2024-05-09T00:26:02.863Z,95541.44
2024-05-09T00:28:31.225Z,95540.50
2024-05-09T00:30:59.708Z,95543.22
2024-05-09T00:33:28.547Z,95543.45
2024-05-09T00:35:57.228Z,95540.02
2024-05-09T00:38:26.114Z,95530.83
2024-05-09T00:40:54.522Z,95531.82
2024-05-09T00:43:23.010Z,95531.55
2024-05-09T00:45:51.459Z,95529.08
2024-05-09T00:48:21.532Z,95526.53
2024-05-09T00:50:51.121Z,95522.13
2024-05-09T00:53:20.714Z,95526.25
2024-05-09T00:55:50.229Z,95524.02
2024-05-09T00:58:22.760Z,95525.63
2024-05-09T01:00:51.670Z,95529.79
2024-05-09T01:03:20.773Z,95524.48
2024-05-09T01:05:50.000Z,95520.33
2024-05-09T01:08:19.578Z,95516.84
2024-05-09T01:10:48.697Z,95515.42
2024-05-09T01:13:17.330Z,95509.28
2024-05-09T01:15:48.051Z,95514.64
2024-05-09T01:18:17.067Z,95510.16
2024-05-09T01:20:45.855Z,95509.61
2024-05-09T01:23:16.186Z,95508.75
2024-05-09T01:25:46.759Z,95503.73
2024-05-09T01:28:16.475Z,95503.79
2024-05-09T01:30:45.039Z,95502.91
2024-05-09T01:33:13.872Z,95504.66
2024-05-09T01:35:43.247Z,95499.27
2024-05-09T01:38:17.494Z,95499.55
2024-05-09T01:40:47.256Z,95499.89
2024-05-09T01:43:16.308Z,95500.92
2024-05-09T01:45:44.826Z,95502.30
2024-05-09T01:48:13.371Z,95499.86
2024-05-09T01:50:43.309Z,95508.39
2024-05-09T01:53:15.158Z,95510.35
2024-05-09T01:55:44.502Z,95508.77
2024-05-09T01:58:13.370Z,95501.52
2024-05-09T02:00:43.395Z,95500.01
2024-05-09T02:03:16.406Z,95504.47
2024-05-09T02:05:52.011Z,95495.66
2024-05-09T02:08:22.154Z,95497.70
2024-05-09T02:10:51.234Z,95504.11
2024-05-09T02:13:19.768Z,95500.06
2024-05-09T02:15:52.046Z,95503.63
2024-05-09T02:18:20.848Z,95502.58
2024-05-09T02:20:49.904Z,95502.38
2024-05-09T02:23:19.968Z,95503.64
2024-05-09T02:25:48.635Z,95506.38
2024-05-09T02:28:17.106Z,95510.89
2024-05-09T02:30:45.682Z,95505.45
2024-05-09T02:33:14.831Z,95511.27
2024-05-09T02:35:44.313Z,95514.55
2024-05-09T02:38:13.722Z,95518.30
2024-05-09T02:40:42.322Z,95522.27
2024-05-09T02:43:12.981Z,95519.35
2024-05-09T02:45:42.027Z,95520.85
2024-05-09T02:48:12.428Z,95519.39
2024-05-09T02:50:44.268Z,95518.50
2024-05-09T02:53:14.472Z,95517.59
2024-05-09T02:55:43.620Z,95518.58
2024-05-09T02:58:12.254Z,95522.41
2024-05-09T03:00:42.556Z,95523.88
2024-05-09T03:03:14.422Z,95525.09
2024-05-09T03:05:47.095Z,95523.54
2024-05-09T03:08:15.700Z,95522.13
2024-05-09T03:10:44.292Z,95526.10
2024-05-09T03:13:15.916Z,95524.27
2024-05-09T03:15:45.842Z,95527.23
2024-05-09T03:18:15.444Z,95525.75
2024-05-09T03:20:44.973Z,95526.88
2024-05-09T03:23:13.716Z,95528.34
2024-05-09T03:25:42.147Z,95534.06
2024-05-09T03:28:11.569Z,95534.35
2024-05-09T03:30:42.569Z,95543.95
2024-05-09T03:33:20.174Z,95545.97
2024-05-09T03:35:49.828Z,95548.89
2024-05-09T03:38:18.520Z,95551.41
2024-05-09T03:40:50.240Z,95551.63
2024-05-09T03:43:19.930Z,95553.11
2024-05-09T03:45:50.521Z,95553.63
2024-05-09T03:48:19.996Z,95558.81
2024-05-09T03:50:49.020Z,95561.05
2024-05-09T03:53:17.828Z,95560.17
2024-05-09T03:55:48.791Z,95560.66
2024-05-09T03:58:19.006Z,95558.17
2024-05-09T04:00:47.630Z,95566.19
2024-05-09T04:03:16.644Z,95566.28
2024-05-09T04:05:45.683Z,95570.50
2024-05-09T04:08:15.416Z,95572.71
2024-05-09T04:10:44.401Z,95573.32
2024-05-09T04:13:13.111Z,95581.79
2024-05-09T04:15:41.668Z,95585.64
2024-05-09T04:18:10.467Z,95588.18
2024-05-09T04:20:40.969Z,95589.59
2024-05-09T04:23:14.708Z,95589.19
2024-05-09T04:25:45.121Z,95594.54
2024-05-09T04:28:14.704Z,95592.77
2024-05-09T04:30:43.791Z,95588.00
2024-05-09T04:33:14.974Z,95591.66
2024-05-09T04:35:44.268Z,95590.92
2024-05-09T04:38:14.570Z,95591.73
2024-05-09T04:40:43.943Z,95586.45
2024-05-09T04:43:17.359Z,95586.31
2024-05-09T04:45:46.392Z,95588.71
2024-05-09T04:48:16.379Z,95589.05
2024-05-09T04:50:45.315Z,95595.94
2024-05-09T04:53:17.741Z,95594.58
2024-05-09T04:55:46.639Z,95594.64
2024-05-09T04:58:15.252Z,95597.70
2024-05-09T05:00:44.843Z,95602.75
2024-05-09T05:03:15.645Z,95601.01
2024-05-09T05:05:47.280Z,95610.73
2024-05-09T05:08:17.980Z,95617.88
2024-05-09T05:10:48.693Z,95621.88
2024-05-09T05:13:22.655Z,95619.59
2024-05-09T05:15:55.914Z,95626.63
2024-05-09T05:18:28.872Z,95623.85
2024-05-09T05:20:58.690Z,95629.46
2024-05-09T05:23:27.745Z,95623.16
2024-05-09T05:25:56.320Z,95620.86
2024-05-09T05:28:24.922Z,95615.79
2024-05-09T05:30:53.304Z,95614.51
2024-05-09T05:33:24.716Z,95607.19
2024-05-09T05:35:53.425Z,95605.05
2024-05-09T05:38:24.822Z,95603.34
2024-05-09T05:40:55.946Z,95608.17
2024-05-09T05:43:24.805Z,95612.60
2024-05-09T05:45:53.306Z,95612.42
2024-05-09T05:48:22.539Z,95617.55
2024-05-09T05:50:51.163Z,95619.17
2024-05-09T05:53:19.777Z,95616.90
2024-05-09T05:55:48.337Z,95620.31
2024-05-09T05:58:16.821Z,95623.92
2024-05-09T06:00:45.418Z,95620.33
2024-05-09T06:03:14.907Z,95627.72
2024-05-09T06:05:45.754Z,95628.63
2024-05-09T06:08:14.903Z,95636.04
2024-05-09T06:10:43.566Z,95637.61
2024-05-09T06:13:13.591Z,95637.56
2024-05-09T06:15:43.331Z,95640.08
2024-05-09T06:18:13.883Z,95640.69
2024-05-09T06:20:44.046Z,95641.52
2024-05-09T06:23:14.737Z,95635.96
2024-05-09T06:25:44.069Z,95639.79
2024-05-09T06:28:12.920Z,95637.23
2024-05-09T06:30:42.960Z,95638.56
2024-05-09T06:33:14.368Z,95642.78
2024-05-09T06:35:46.723Z,95635.64
2024-05-09T06:38:15.351Z,95636.62
2024-05-09T06:40:44.639Z,95642.41
2024-05-09T06:43:19.275Z,95636.73
2024-05-09T06:45:49.486Z,95633.80
2024-05-09T06:48:22.284Z,95639.45
2024-05-09T06:50:51.454Z,95639.09
2024-05-09T06:53:23.826Z,95639.79
2024-05-09T06:55:52.933Z,95641.14
2024-05-09T06:58:21.548Z,95642.14
2024-05-09T07:00:50.125Z,95643.48
2024-05-09T07:03:19.655Z,95648.09
2024-05-09T07:05:49.666Z,95645.48
2024-05-09T07:08:19.290Z,95643.05
2024-05-09T07:10:48.255Z,95639.36
2024-05-09T07:13:16.885Z,95638.58
2024-05-09T07:15:45.482Z,95631.95
2024-05-09T07:18:17.128Z,95631.07
2024-05-09T07:20:48.390Z,95628.59
2024-05-09T07:23:18.770Z,95629.60
2024-05-09T07:25:47.512Z,95629.80
2024-05-09T07:28:18.446Z,95631.25
2024-05-09T07:30:47.964Z,95638.50
2024-05-09T07:33:22.417Z,95640.02
2024-05-09T07:35:52.700Z,95641.02
2024-05-09T07:38:21.758Z,95641.63
2024-05-09T07:40:50.242Z,95643.09
2024-05-09T07:43:18.893Z,95646.84
2024-05-09T07:45:52.878Z,95649.73
2024-05-09T07:53:40.406Z,95660.60
2024-05-09T07:56:13.949Z,95665.17
2024-05-09T07:58:44.162Z,95672.50
2024-05-09T08:01:12.989Z,95677.18
2024-05-09T08:03:41.746Z,95679.98
2024-05-09T08:06:10.522Z,95681.38
2024-05-09T08:08:39.112Z,95684.05
2024-05-09T08:11:07.519Z,95685.23
2024-05-09T08:13:35.915Z,95683.90
2024-05-09T08:16:05.305Z,95686.83
2024-05-09T08:18:33.865Z,95686.30
2024-05-09T08:21:02.575Z,95689.79
2024-05-09T08:23:31.417Z,95693.59
2024-05-09T08:25:59.953Z,95695.45
2024-05-09T08:28:29.318Z,95691.48
2024-05-09T08:30:57.975Z,95691.77
2024-05-09T08:33:26.556Z,95692.92
2024-05-09T08:35:55.249Z,95692.61
2024-05-09T08:38:24.145Z,95693.50
2024-05-09T08:40:53.621Z,95694.84
2024-05-09T08:43:24.671Z,95706.30
2024-05-09T08:45:53.485Z,95705.66
2024-05-09T08:48:24.186Z,95702.48
2024-05-09T08:50:53.464Z,95707.21
2024-05-09T08:53:22.032Z,95706.30
2024-05-09T08:55:51.788Z,95711.33
2024-05-09T08:58:21.471Z,95708.13
2024-05-09T09:00:50.292Z,95705.36
2024-05-09T09:03:22.147Z,95705.66
2024-05-09T09:06:10.506Z,95707.85
2024-05-09T09:08:39.898Z,95708.85
2024-05-09T09:11:08.532Z,95707.09
2024-05-09T09:13:38.335Z,95708.41
2024-05-09T09:16:07.215Z,95709.06
2024-05-09T09:18:35.759Z,95715.85
2024-05-09T09:21:04.939Z,95712.15
2024-05-09T09:23:33.534Z,95714.27
2024-05-09T09:26:02.356Z,95713.87
2024-05-09T09:28:31.071Z,95712.27
2024-05-09T09:31:03.379Z,95718.73
2024-05-09T09:33:32.413Z,95713.05
2024-05-09T09:36:07.561Z,95717.93
2024-05-09T09:38:37.637Z,95716.23
2024-05-09T09:41:13.000Z,95719.47
2024-05-09T09:43:42.685Z,95720.33
2024-05-09T09:46:12.947Z,95722.48
2024-05-09T09:48:44.008Z,95721.23
2024-05-09T09:51:15.135Z,95728.48
2024-05-09T09:53:44.483Z,95729.22
2024-05-09T09:56:15.067Z,95725.62
2024-05-09T09:58:45.448Z,95725.74
2024-05-09T10:01:14.200Z,95727.21
2024-05-09T10:03:45.434Z,95722.86
2024-05-09T10:06:15.576Z,95725.18
2024-05-09T10:08:46.884Z,95719.89
2024-05-09T10:11:22.445Z,95725.18
2024-05-09T10:13:51.858Z,95718.14
2024-05-09T10:16:23.853Z,95715.92
2024-05-09T10:18:52.692Z,95718.90
2024-05-09T10:21:22.096Z,95717.73
2024-05-09T10:23:58.305Z,95715.81
2024-05-09T10:26:32.872Z,95713.85
2024-05-09T10:29:11.295Z,95718.04
2024-05-09T10:31:43.730Z,95713.30
2024-05-09T10:34:32.904Z,95713.54
2024-05-09T10:37:04.693Z,95713.02
2024-05-09T10:39:39.117Z,95709.07
2024-05-09T10:42:10.239Z,95702.95
2024-05-09T10:44:38.825Z,95705.02
2024-05-09T10:47:07.384Z,95708.20
2024-05-09T10:49:38.752Z,95703.53
2024-05-09T10:52:08.854Z,95704.54
2024-05-09T10:54:38.951Z,95706.27
2024-05-09T10:57:07.466Z,95704.78
2024-05-09T10:59:39.378Z,95705.70
2024-05-09T11:02:08.281Z,95702.50
2024-05-09T11:04:40.273Z,95704.72
2024-05-09T11:07:10.429Z,95709.67
2024-05-09T11:09:41.001Z,95709.82
2024-05-09T11:12:09.909Z,95706.05
2024-05-09T11:14:38.553Z,95707.84
2024-05-09T11:17:08.496Z,95705.14
2024-05-09T11:19:39.904Z,95706.90
2024-05-09T11:22:08.930Z,95700.59
2024-05-09T11:24:37.630Z,95702.52
2024-05-09T11:27:06.736Z,95698.89
2024-05-09T11:29:40.191Z,95701.54
2024-05-09T11:32:11.328Z,95705.00
2024-05-09T11:34:42.009Z,95704.30
2024-05-09T11:37:11.239Z,95703.64
2024-05-09T11:39:39.777Z,95704.12
2024-05-09T11:42:08.266Z,95703.77
2024-05-09T11:44:37.008Z,95700.21
2024-05-09T11:47:05.629Z,95702.52
2024-05-09T11:49:34.070Z,95696.02
2024-05-09T11:52:02.847Z,95693.70
2024-05-09T11:54:31.423Z,95693.30
2024-05-09T11:57:00.021Z,95688.35
2024-05-09T11:59:28.756Z,95682.34
2024-05-09T12:01:57.441Z,95681.46
2024-05-09T12:04:25.880Z,95671.96
2024-05-09T12:06:54.473Z,95671.57
2024-05-09T12:09:23.034Z,95670.16
2024-05-09T12:11:51.538Z,95671.57
2024-05-09T12:14:19.888Z,95668.19
2024-05-09T12:16:49.086Z,95667.16
2024-05-09T12:19:17.847Z,95664.84
2024-05-09T12:21:46.293Z,95665.31
2024-05-09T12:24:17.713Z,95659.42
2024-05-09T12:26:47.420Z,95664.00
2024-05-09T12:29:15.900Z,95656.80
2024-05-09T12:31:44.221Z,95658.63
2024-05-09T12:34:13.508Z,95650.66
2024-05-09T12:36:43.220Z,95645.30
2024-05-09T12:39:11.711Z,95638.95
2024-05-09T12:41:40.239Z,95641.15
2024-05-09T12:44:08.730Z,95639.54
2024-05-09T12:46:37.702Z,95635.28
2024-05-09T12:49:06.867Z,95633.64
2024-05-09T12:51:35.947Z,95636.51
2024-05-09T12:54:04.521Z,95633.27
2024-05-09T12:56:33.613Z,95630.64
2024-05-09T12:59:02.316Z,95628.38
2024-05-09T13:01:30.703Z,95629.03
2024-05-09T13:03:59.552Z,95623.80
2024-05-09T13:06:28.129Z,95631.38
2024-05-09T13:08:57.368Z,95631.35
2024-05-09T13:11:25.714Z,95631.64
2024-05-09T13:13:54.115Z,95630.26
2024-05-09T13:16:22.907Z,95624.91
2024-05-09T13:18:51.676Z,95624.28
2024-05-09T13:21:20.277Z,95623.24
2024-05-09T13:23:48.765Z,95619.52
2024-05-09T13:26:17.286Z,95621.90
2024-05-09T13:28:45.975Z,95618.58
2024-05-09T13:31:14.240Z,95621.54
2024-05-09T13:33:42.963Z,95623.54
2024-05-09T13:36:11.665Z,95617.73
2024-05-09T13:38:40.248Z,95626.13
2024-05-09T13:41:08.583Z,95626.77
2024-05-09T13:43:37.095Z,95627.44
2024-05-09T13:46:05.615Z,95631.13
2024-05-09T13:48:34.655Z,95637.38
2024-05-09T13:51:03.261Z,95635.48
2024-05-09T13:53:31.638Z,95636.98
2024-05-09T13:56:00.420Z,95642.58
2024-05-09T13:58:28.859Z,95648.48
2024-05-09T14:00:58.314Z,95646.49
2024-05-09T14:03:29.777Z,95648.21
2024-05-09T14:05:59.847Z,95646.52
2024-05-09T14:08:29.430Z,95649.14
2024-05-09T14:10:57.842Z,95653.94
2024-05-09T14:13:26.315Z,95656.55
2024-05-09T14:15:55.279Z,95652.16
2024-05-09T14:18:24.076Z,95654.52
2024-05-09T14:20:52.620Z,95657.17
2024-05-09T14:23:21.246Z,95658.02
2024-05-09T14:25:52.792Z,95654.94
2024-05-09T14:28:22.736Z,95657.70
2024-05-09T14:30:51.596Z,95661.74
2024-05-09T14:33:25.576Z,95658.37
2024-05-09T14:35:54.717Z,95659.70
2024-05-09T14:38:24.554Z,95661.09
2024-05-09T14:40:53.535Z,95663.46
2024-05-09T14:43:22.068Z,95664.00
2024-05-09T14:45:50.568Z,95656.06
2024-05-09T14:48:20.103Z,95657.46
2024-05-09T14:50:49.008Z,95662.64
2024-05-09T14:53:17.540Z,95665.21
2024-05-09T14:55:47.170Z,95666.27
2024-05-09T14:58:16.142Z,95662.48
2024-05-09T15:00:50.099Z,95666.30
2024-05-09T15:03:22.247Z,95664.52
2024-05-09T15:05:52.406Z,95661.65
2024-05-09T15:08:21.229Z,95657.66
2024-05-09T15:10:50.663Z,95659.39
2024-05-09T15:13:20.994Z,95660.35
2024-05-09T15:15:50.085Z,95657.70
2024-05-09T15:18:19.040Z,95654.52
2024-05-09T15:20:48.542Z,95655.89
2024-05-09T15:23:17.572Z,95653.49
2024-05-09T15:25:46.213Z,95651.88
2024-05-09T15:28:14.869Z,95646.54
2024-05-09T15:30:46.327Z,95647.98
2024-05-09T15:33:15.626Z,95642.77
2024-05-09T15:35:46.603Z,95639.79
2024-05-09T15:38:16.190Z,95636.48
2024-05-09T15:40:44.820Z,95636.80
2024-05-09T15:43:13.663Z,95632.89
2024-05-09T15:45:42.352Z,95636.10
2024-05-09T15:48:11.619Z,95637.53
2024-05-09T15:50:42.087Z,95638.25
2024-05-09T15:53:13.324Z,95638.08
2024-05-09T15:55:43.354Z,95641.56
2024-05-09T15:58:13.106Z,95639.32
2024-05-09T16:00:44.786Z,95638.52
2024-05-09T16:03:15.627Z,95641.92
2024-05-09T16:05:48.224Z,95644.12
2024-05-09T16:08:17.858Z,95644.08
2024-05-09T16:10:47.495Z,95642.60
2024-05-09T16:13:17.360Z,95646.77
2024-05-09T16:15:46.722Z,95649.05
2024-05-09T16:18:15.839Z,95653.19
2024-05-09T16:20:46.310Z,95649.30
2024-05-09T16:23:17.168Z,95649.89
2024-05-09T16:25:48.059Z,95650.11
2024-05-09T16:28:19.191Z,95651.20
2024-05-09T16:30:47.800Z,95651.13
2024-05-09T16:33:20.729Z,95655.00
2024-05-09T16:35:50.225Z,95655.81
2024-05-09T16:38:19.745Z,95658.48
2024-05-09T16:40:48.249Z,95657.64
2024-05-09T16:43:16.899Z,95658.34
2024-05-09T16:45:45.605Z,95661.04
2024-05-09T16:48:14.744Z,95664.18
2024-05-09T16:50:43.526Z,95663.60
2024-05-09T16:53:13.655Z,95665.23
2024-05-09T16:55:42.293Z,95670.11
2024-05-09T16:58:12.419Z,95672.25
2024-05-09T17:00:43.352Z,95673.65
2024-05-09T17:03:15.586Z,95673.19
2024-05-09T17:05:46.902Z,95674.07
2024-05-09T17:08:20.414Z,95679.06
2024-05-09T17:10:49.859Z,95678.81
2024-05-09T17:13:19.359Z,95682.60
2024-05-09T17:15:52.436Z,95680.34
2024-05-09T17:18:21.747Z,95680.29
2024-05-09T17:20:51.527Z,95680.12
2024-05-09T17:23:20.082Z,95679.43
2024-05-09T17:25:48.459Z,95681.00
2024-05-09T17:28:16.986Z,95684.59
2024-05-09T17:30:45.539Z,95683.75
2024-05-09T17:33:14.123Z,95687.52
2024-05-09T17:35:42.738Z,95687.95
2024-05-09T17:38:11.534Z,95689.98
2024-05-09T17:40:40.346Z,95694.40
2024-05-09T17:43:10.481Z,95696.31
2024-05-09T17:45:41.190Z,95696.04
2024-05-09T17:48:11.950Z,95706.18
2024-05-09T17:50:42.010Z,95707.29
2024-05-09T17:53:11.137Z,95711.67
2024-05-09T17:55:40.702Z,95713.95
2024-05-09T17:58:09.969Z,95717.08
2024-05-09T18:00:41.551Z,95716.42
2024-05-09T18:03:12.671Z,95725.11
2024-05-09T18:05:44.525Z,95725.36
2024-05-09T18:08:14.208Z,95732.17
2024-05-09T18:10:42.944Z,95736.49
2024-05-09T18:13:13.457Z,95740.65
2024-05-09T18:15:42.334Z,95739.34
2024-05-09T18:18:12.776Z,95743.80
2024-05-09T18:20:45.028Z,95745.77
2024-05-09T18:23:17.763Z,95751.04
2024-05-09T18:25:48.090Z,95754.27
2024-05-09T18:28:17.565Z,95756.45
2024-05-09T18:30:46.719Z,95759.23
2024-05-09T18:33:16.353Z,95761.05
2024-05-09T18:35:45.410Z,95764.26
2024-05-09T18:38:14.283Z,95762.29
2024-05-09T18:40:44.923Z,95760.04
2024-05-09T18:43:16.674Z,95761.36
2024-05-09T18:45:46.107Z,95763.84
2024-05-09T18:48:15.230Z,95765.73
2024-05-09T18:50:45.539Z,95764.37
2024-05-09T18:53:14.264Z,95765.64
2024-05-09T18:55:42.720Z,95771.70
2024-05-09T18:58:11.884Z,95771.10
2024-05-09T19:00:42.898Z,95776.20
2024-05-09T19:03:15.042Z,95774.59
2024-05-09T19:05:46.013Z,95778.17
2024-05-09T19:08:15.763Z,95782.30
2024-05-09T19:10:47.828Z,95785.41
2024-05-09T19:13:16.707Z,95789.73
2024-05-09T19:15:45.403Z,95789.59
2024-05-09T19:18:14.597Z,95786.28
2024-05-09T19:20:44.300Z,95789.58
2024-05-09T19:23:13.259Z,95794.20
2024-05-09T19:25:41.693Z,95794.08
2024-05-09T19:28:10.235Z,95794.77
2024-05-09T19:30:41.917Z,95796.09
2024-05-09T19:33:13.312Z,95795.06
2024-05-09T19:35:43.868Z,95791.62
2024-05-09T19:38:13.375Z,95793.02
2024-05-09T19:40:42.278Z,95798.07
2024-05-09T19:43:11.237Z,95796.13
2024-05-09T19:45:40.205Z,95796.89
2024-05-09T19:48:09.069Z,95795.94
2024-05-09T19:50:43.086Z,95793.80
2024-05-09T19:53:14.390Z,95794.20
2024-05-09T19:55:43.559Z,95794.98
2024-05-09T19:58:12.874Z,95795.27
2024-05-09T20:00:43.736Z,95797.69
2024-05-09T20:03:14.979Z,95797.92
2024-05-09T20:05:46.712Z,95798.61
2024-05-09T20:08:16.465Z,95798.84
2024-05-09T20:10:45.605Z,95800.46
2024-05-09T20:13:14.748Z,95798.40
2024-05-09T20:15:43.510Z,95803.27
2024-05-09T20:18:12.369Z,95807.54
2024-05-09T20:20:43.790Z,95808.96
2024-05-09T20:23:14.486Z,95808.71
2024-05-09T20:25:43.645Z,95814.42
2024-05-09T20:28:12.386Z,95813.17
2024-05-09T20:30:41.342Z,95808.43
2024-05-09T20:33:10.696Z,95812.48
2024-05-09T20:35:39.913Z,95814.34
2024-05-09T20:38:08.637Z,95814.21
2024-05-09T20:40:39.206Z,95815.66
2024-05-09T20:43:12.052Z,95812.48
2024-05-09T20:45:41.034Z,95810.55
2024-05-09T20:48:10.273Z,95809.89
2024-05-09T20:50:41.877Z,95807.66
2024-05-09T20:53:13.945Z,95808.48
2024-05-09T20:55:44.735Z,95810.23
2024-05-09T20:58:14.369Z,95808.98
2024-05-09T21:00:45.748Z,95809.30
2024-05-09T21:03:17.018Z,95806.63
2024-05-09T21:05:47.963Z,95808.67
2024-05-09T21:08:17.252Z,95810.62
2024-05-09T21:10:46.061Z,95813.23
2024-05-09T21:13:15.004Z,95814.83
2024-05-09T21:15:43.822Z,95813.55
2024-05-09T21:18:12.535Z,95816.52
2024-05-09T21:20:41.541Z,95816.65
2024-05-09T21:23:10.012Z,95817.05
2024-05-09T21:25:38.398Z,95821.95
2024-05-09T21:28:07.190Z,95824.98
2024-05-09T21:30:41.600Z,95826.41
2024-05-09T21:33:13.577Z,95823.27
2024-05-09T21:35:44.735Z,95824.10
2024-05-09T21:38:15.076Z,95828.06
2024-05-09T21:40:44.440Z,95831.89
2024-05-09T21:43:14.348Z,95836.41
2024-05-09T21:45:43.465Z,95839.98
2024-05-09T21:48:13.473Z,95838.54
2024-05-09T21:50:42.691Z,95837.01
2024-05-09T21:53:12.625Z,95835.20
2024-05-09T21:55:42.893Z,95839.21
2024-05-09T21:58:13.754Z,95839.48
2024-05-09T22:00:45.652Z,95838.76
2024-05-09T22:03:15.059Z,95837.84
2024-05-09T22:05:45.272Z,95842.77
2024-05-09T22:08:13.946Z,95845.35
2024-05-09T22:10:42.861Z,95844.20
2024-05-09T22:13:11.686Z,95848.39
2024-05-09T22:15:40.842Z,95853.15
2024-05-09T22:18:11.320Z,95858.29
2024-05-09T22:20:45.592Z,95858.39
2024-05-09T22:23:15.977Z,95863.30
2024-05-09T22:25:44.546Z,95864.48
2024-05-09T22:28:15.725Z,95861.82
2024-05-09T22:30:46.210Z,95858.61
2024-05-09T22:33:15.854Z,95861.64
2024-05-09T22:35:45.204Z,95859.85
2024-05-09T22:38:13.828Z,95857.92
2024-05-09T22:40:47.848Z,95859.08
2024-05-09T22:43:20.813Z,95860.05
2024-05-09T22:45:51.282Z,95858.30
2024-05-09T22:48:20.236Z,95857.86
2024-05-09T22:50:49.016Z,95858.25
2024-05-09T22:53:18.070Z,95859.46
2024-05-09T22:55:46.638Z,95862.57
2024-05-09T22:58:15.281Z,95861.69
2024-05-09T23:00:43.854Z,95858.60
2024-05-09T23:03:14.128Z,95852.71
2024-05-09T23:05:43.808Z,95850.25
2024-05-09T23:08:12.297Z,95852.48
2024-05-09T23:10:40.711Z,95848.73
2024-05-09T23:13:09.349Z,95849.31
2024-05-09T23:15:40.856Z,95848.54
2024-05-09T23:18:09.560Z,95847.91
2024-05-09T23:20:39.872Z,95848.11
2024-05-09T23:23:10.608Z,95847.42
2024-05-09T23:25:43.983Z,95850.45
2024-05-09T23:28:14.031Z,95852.39
2024-05-09T23:30:42.784Z,95854.88
2024-05-09T23:33:13.150Z,95855.58
2024-05-09T23:35:46.095Z,95857.11
2024-05-09T23:38:14.304Z,95859.09
2024-05-09T23:40:43.357Z,95861.84
2024-05-09T23:43:14.214Z,95860.65
2024-05-09T23:45:43.242Z,95856.31
2024-05-09T23:48:12.265Z,95863.36
2024-05-09T23:50:41.396Z,95859.13
2024-05-09T23:53:11.077Z,95860.51
2024-05-09T23:55:40.508Z,95856.85
2024-05-09T23:58:11.260Z,95857.89
